sensor_id;sensor_type;location;lat;lon;timestamp;pressure;altitude;pressure_sealevel;temperature;humidity
40155;BME280;25875;48.202;16.334;2023-01-25T00:00:04;100808.34;;;2.73;73.99
40155;BME280;25875;48.202;16.334;2023-01-25T00:02:31;100816.19;;;2.75;73.88
40155;BME280;25875;48.202;16.334;2023-01-25T00:04:58;100343.81;;;0.03;73.57
40155;BME280;25875;48.202;16.334;2023-01-25T00:07:24;100812.72;;;2.76;73.82
40155;BME280;25875;48.202;16.334;2023-01-25T00:09:51;100811.84;;;2.75;73.79
40155;BME280;25875;48.202;16.334;2023-01-25T00:12:19;100800.50;;;2.75;73.76
40155;BME280;25875;48.202;16.334;2023-01-25T00:14:46;100805.72;;;2.75;73.87
40155;BME280;25875;48.202;16.334;2023-01-25T00:17:13;100812.72;;;2.74;73.82
40155;BME280;25875;48.202;16.334;2023-01-25T00:19:39;100816.19;;;2.75;73.84
40155;BME280;25875;48.202;16.334;2023-01-25T00:22:06;100814.44;;;2.74;73.79
40155;BME280;25875;48.202;16.334;2023-01-25T00:24:33;100816.19;;;2.73;73.99
40155;BME280;25875;48.202;16.334;2023-01-25T00:27:01;100801.34;;;2.54;73.98
40155;BME280;25875;48.202;16.334;2023-01-25T00:29:29;100815.31;;;2.71;73.88
40155;BME280;25875;48.202;16.334;2023-01-25T00:32:06;100817.06;;;2.71;73.69
40155;BME280;25875;48.202;16.334;2023-01-25T00:34:51;100773.44;;;2.44;73.77
40155;BME280;25875;48.202;16.334;2023-01-25T00:37:29;100824.91;;;2.69;73.95
40155;BME280;25875;48.202;16.334;2023-01-25T00:39:56;100824.06;;;2.70;73.95
40155;BME280;25875;48.202;16.334;2023-01-25T00:42:23;100818.81;;;2.70;74.08
40155;BME280;25875;48.202;16.334;2023-01-25T00:44:51;100822.31;;;2.71;73.88
40155;BME280;25875;48.202;16.334;2023-01-25T00:47:17;100818.81;;;2.70;73.89
40155;BME280;25875;48.202;16.334;2023-01-25T00:49:45;100824.06;;;2.70;74.03
40155;BME280;25875;48.202;16.334;2023-01-25T00:52:12;100828.41;;;2.71;73.86
40155;BME280;25875;48.202;16.334;2023-01-25T00:54:39;100824.94;;;2.72;73.84
40155;BME280;25875;48.202;16.334;2023-01-25T00:57:06;100831.91;;;2.73;74.00
40155;BME280;25875;48.202;16.334;2023-01-25T00:59:33;100824.94;;;2.72;73.88
40155;BME280;25875;48.202;16.334;2023-01-25T01:02:02;100833.66;;;2.73;73.93
40155;BME280;25875;48.202;16.334;2023-01-25T01:04:29;100763.84;;;2.32;73.87
40155;BME280;25875;48.202;16.334;2023-01-25T01:06:56;100832.78;;;2.72;73.88
40155;BME280;25875;48.202;16.334;2023-01-25T01:09:23;100838.00;;;2.72;74.06
40155;BME280;25875;48.202;16.334;2023-01-25T01:11:50;100832.78;;;2.72;73.89
40155;BME280;25875;48.202;16.334;2023-01-25T01:14:17;100783.91;;;2.50;74.12
40155;BME280;25875;48.202;16.334;2023-01-25T01:16:44;100818.81;;;2.70;74.07
40155;BME280;25875;48.202;16.334;2023-01-25T01:19:12;100721.97;;;2.12;74.01
40155;BME280;25875;48.202;16.334;2023-01-25T01:21:39;100819.69;;;2.69;74.12
40155;BME280;25875;48.202;16.334;2023-01-25T01:24:08;100820.56;;;2.68;74.03
40155;BME280;25875;48.202;16.334;2023-01-25T01:26:35;100823.19;;;2.68;74.01
40155;BME280;25875;48.202;16.334;2023-01-25T01:29:02;100728.06;;;2.07;74.24
40155;BME280;25875;48.202;16.334;2023-01-25T01:31:29;100820.56;;;2.68;74.09
40155;BME280;25875;48.202;16.334;2023-01-25T01:33:56;100821.44;;;2.69;74.17
40155;BME280;25875;48.202;16.334;2023-01-25T01:36:27;100814.44;;;2.69;73.80
40155;BME280;25875;48.202;16.334;2023-01-25T01:38:54;100773.44;;;2.29;74.12
40155;BME280;25875;48.202;16.334;2023-01-25T01:41:21;100820.56;;;2.68;74.00
40155;BME280;25875;48.202;16.334;2023-01-25T01:43:48;100749.88;;;2.19;74.06
40155;BME280;25875;48.202;16.334;2023-01-25T01:46:21;100732.44;;;2.11;74.11
40155;BME280;25875;48.202;16.334;2023-01-25T01:48:52;100797.00;;;2.56;74.21
40155;BME280;25875;48.202;16.334;2023-01-25T01:51:25;100823.19;;;2.68;74.24
40155;BME280;25875;48.202;16.334;2023-01-25T01:53:57;100817.06;;;2.69;74.27
40155;BME280;25875;48.202;16.334;2023-01-25T01:56:30;100812.72;;;2.70;74.14
40155;BME280;25875;48.202;16.334;2023-01-25T01:58:59;100813.59;;;2.72;74.29
40155;BME280;25875;48.202;16.334;2023-01-25T02:01:26;100810.97;;;2.72;74.07
40155;BME280;25875;48.202;16.334;2023-01-25T02:03:54;100806.59;;;2.72;74.15
40155;BME280;25875;48.202;16.334;2023-01-25T02:06:40;100807.47;;;2.71;74.08
40155;BME280;25875;48.202;16.334;2023-01-25T02:09:07;100813.59;;;2.70;74.10
40155;BME280;25875;48.202;16.334;2023-01-25T02:11:34;100811.84;;;2.71;74.01
40155;BME280;25875;48.202;16.334;2023-01-25T02:14:02;100813.59;;;2.70;74.29
40155;BME280;25875;48.202;16.334;2023-01-25T02:16:29;100815.31;;;2.71;74.21
40155;BME280;25875;48.202;16.334;2023-01-25T02:18:57;100814.44;;;2.69;74.26
40155;BME280;25875;48.202;16.334;2023-01-25T02:21:34;100806.59;;;2.68;74.26
40155;BME280;25875;48.202;16.334;2023-01-25T02:24:08;100809.22;;;2.66;74.31
40155;BME280;25875;48.202;16.334;2023-01-25T02:26:37;100815.31;;;2.67;74.37
40155;BME280;25875;48.202;16.334;2023-01-25T02:29:06;100812.72;;;2.68;74.40
40155;BME280;25875;48.202;16.334;2023-01-25T02:31:34;100811.84;;;2.69;74.25
40155;BME280;25875;48.202;16.334;2023-01-25T02:34:01;100810.09;;;2.70;74.36
40155;BME280;25875;48.202;16.334;2023-01-25T02:36:29;100808.34;;;2.70;74.27
40155;BME280;25875;48.202;16.334;2023-01-25T02:38:59;100800.50;;;2.70;74.12
40155;BME280;25875;48.202;16.334;2023-01-25T02:41:30;100807.47;;;2.71;74.31
40155;BME280;25875;48.202;16.334;2023-01-25T02:44:03;100780.44;;;2.59;74.29
40155;BME280;25875;48.202;16.334;2023-01-25T02:46:32;100796.13;;;2.69;74.25
40155;BME280;25875;48.202;16.334;2023-01-25T02:49:00;100803.09;;;2.67;74.52
40155;BME280;25875;48.202;16.334;2023-01-25T02:51:30;100804.84;;;2.65;74.50
40155;BME280;25875;48.202;16.334;2023-01-25T02:53:58;100708.91;;;2.06;74.74
40155;BME280;25875;48.202;16.334;2023-01-25T02:56:25;100788.28;;;2.63;74.64
40155;BME280;25875;48.202;16.334;2023-01-25T02:58:52;100790.88;;;2.66;74.67
40155;BME280;25875;48.202;16.334;2023-01-25T03:01:21;100787.41;;;2.67;74.62
40155;BME280;25875;48.202;16.334;2023-01-25T03:03:48;100782.16;;;2.69;74.38
40155;BME280;25875;48.202;16.334;2023-01-25T03:06:14;100778.69;;;2.68;74.45
40155;BME280;25875;48.202;16.334;2023-01-25T03:08:41;100647.00;;;1.85;74.39
40155;BME280;25875;48.202;16.334;2023-01-25T03:11:08;100769.94;;;2.68;74.58
40155;BME280;25875;48.202;16.334;2023-01-25T03:13:36;100767.34;;;2.69;74.39
40155;BME280;25875;48.202;16.334;2023-01-25T03:16:05;100759.47;;;2.69;74.38
40155;BME280;25875;48.202;16.334;2023-01-25T03:18:34;100756.84;;;2.71;74.41
40155;BME280;25875;48.202;16.334;2023-01-25T03:21:06;100754.25;;;2.69;74.40
40155;BME280;25875;48.202;16.334;2023-01-25T03:23:33;100751.63;;;2.69;74.49
40155;BME280;25875;48.202;16.334;2023-01-25T03:26:08;100697.56;;;2.29;74.27
40155;BME280;25875;48.202;16.334;2023-01-25T03:28:35;100749.00;;;2.68;74.33
40155;BME280;25875;48.202;16.334;2023-01-25T03:31:03;100749.88;;;2.68;74.48
40155;BME280;25875;48.202;16.334;2023-01-25T03:33:30;100739.41;;;2.68;74.39
40155;BME280;25875;48.202;16.334;2023-01-25T03:35:58;100721.09;;;2.56;74.36
40155;BME280;25875;48.202;16.334;2023-01-25T03:38:26;100736.78;;;2.70;74.25
40155;BME280;25875;48.202;16.334;2023-01-25T03:40:53;100735.91;;;2.68;74.76
40155;BME280;25875;48.202;16.334;2023-01-25T03:43:20;100667.06;;;2.23;74.25
40155;BME280;25875;48.202;16.334;2023-01-25T03:45:51;100730.69;;;2.66;74.28
40155;BME280;25875;48.202;16.334;2023-01-25T03:48:18;100723.72;;;2.67;74.43
40155;BME280;25875;48.202;16.334;2023-01-25T03:50:48;100721.09;;;2.67;74.32
40155;BME280;25875;48.202;16.334;2023-01-25T03:53:16;100714.97;;;2.68;74.45
40155;BME280;25875;48.202;16.334;2023-01-25T03:55:52;100708.88;;;2.67;74.35
40155;BME280;25875;48.202;16.334;2023-01-25T03:58:20;100717.59;;;2.65;74.47
40155;BME280;25875;48.202;16.334;2023-01-25T04:00:47;100729.81;;;2.64;74.55
40155;BME280;25875;48.202;16.334;2023-01-25T04:03:14;100721.97;;;2.64;74.61
40155;BME280;25875;48.202;16.334;2023-01-25T04:05:44;100722.84;;;2.63;74.59
40155;BME280;25875;48.202;16.334;2023-01-25T04:08:11;100720.22;;;2.63;74.54
40155;BME280;25875;48.202;16.334;2023-01-25T04:10:39;100690.56;;;2.49;74.60
40155;BME280;25875;48.202;16.334;2023-01-25T04:13:06;100715.84;;;2.65;74.62
40155;BME280;25875;48.202;16.334;2023-01-25T04:15:33;100716.72;;;2.66;74.55
40155;BME280;25875;48.202;16.334;2023-01-25T04:18:00;100716.72;;;2.66;74.45
40155;BME280;25875;48.202;16.334;2023-01-25T04:20:27;100720.22;;;2.65;74.59
40155;BME280;25875;48.202;16.334;2023-01-25T04:22:53;100722.84;;;2.63;74.49
40155;BME280;25875;48.202;16.334;2023-01-25T04:25:20;100720.22;;;2.62;74.54
40155;BME280;25875;48.202;16.334;2023-01-25T04:27:49;100712.38;;;2.60;74.59
40155;BME280;25875;48.202;16.334;2023-01-25T04:30:15;100707.13;;;2.60;74.59
40155;BME280;25875;48.202;16.334;2023-01-25T04:32:42;100292.59;;;0.18;74.42
40155;BME280;25875;48.202;16.334;2023-01-25T04:35:09;100708.88;;;2.63;74.43
40155;BME280;25875;48.202;16.334;2023-01-25T04:37:36;100707.13;;;2.63;74.48
40155;BME280;25875;48.202;16.334;2023-01-25T04:40:03;100707.13;;;2.63;74.48
40155;BME280;25875;48.202;16.334;2023-01-25T04:42:30;100704.50;;;2.63;74.46
40155;BME280;25875;48.202;16.334;2023-01-25T04:44:59;100707.13;;;2.63;74.61
40155;BME280;25875;48.202;16.334;2023-01-25T04:47:25;100701.03;;;2.63;74.58
40155;BME280;25875;48.202;16.334;2023-01-25T04:49:52;100698.41;;;2.63;74.54
40155;BME280;25875;48.202;16.334;2023-01-25T04:52:19;100700.16;;;2.64;74.51
40155;BME280;25875;48.202;16.334;2023-01-25T04:54:46;100691.44;;;2.65;74.56
40155;BME280;25875;48.202;16.334;2023-01-25T04:57:12;100693.16;;;2.63;74.40
40155;BME280;25875;48.202;16.334;2023-01-25T04:59:39;100690.56;;;2.63;74.62
40155;BME280;25875;48.202;16.334;2023-01-25T05:02:07;100702.78;;;2.62;74.59
40155;BME280;25875;48.202;16.334;2023-01-25T05:04:34;100697.53;;;2.61;74.56
40155;BME280;25875;48.202;16.334;2023-01-25T05:07:01;100698.41;;;2.61;74.60
40155;BME280;25875;48.202;16.334;2023-01-25T05:09:28;100699.28;;;2.60;74.65
40155;BME280;25875;48.202;16.334;2023-01-25T05:11:55;100703.66;;;2.61;74.72
40155;BME280;25875;48.202;16.334;2023-01-25T05:14:21;100699.28;;;2.62;74.64
40155;BME280;25875;48.202;16.334;2023-01-25T05:16:48;100703.63;;;2.63;74.61
40155;BME280;25875;48.202;16.334;2023-01-25T05:19:17;100702.78;;;2.62;74.67
40155;BME280;25875;48.202;16.334;2023-01-25T05:21:43;100702.78;;;2.62;74.64
40155;BME280;25875;48.202;16.334;2023-01-25T05:24:26;100704.50;;;2.63;74.55
40155;BME280;25875;48.202;16.334;2023-01-25T05:26:54;100672.25;;;2.46;74.59
40155;BME280;25875;48.202;16.334;2023-01-25T05:29:28;100622.59;;;2.08;74.63
40155;BME280;25875;48.202;16.334;2023-01-25T05:31:56;100713.25;;;2.62;74.76
40155;BME280;25875;48.202;16.334;2023-01-25T05:34:24;100711.50;;;2.63;74.69
40155;BME280;25875;48.202;16.334;2023-01-25T05:36:51;100627.81;;;2.03;74.54
40155;BME280;25875;48.202;16.334;2023-01-25T05:39:18;100717.59;;;2.62;74.77
40155;BME280;25875;48.202;16.334;2023-01-25T05:41:45;100715.00;;;2.60;74.59
40155;BME280;25875;48.202;16.334;2023-01-25T05:44:12;100720.22;;;2.59;74.70
40155;BME280;25875;48.202;16.334;2023-01-25T05:46:38;100721.09;;;2.59;74.79
40155;BME280;25875;48.202;16.334;2023-01-25T05:49:05;100684.47;;;2.42;74.87
40155;BME280;25875;48.202;16.334;2023-01-25T05:51:34;100717.59;;;2.60;74.72
40155;BME280;25875;48.202;16.334;2023-01-25T05:54:01;100728.06;;;2.60;74.75
40155;BME280;25875;48.202;16.334;2023-01-25T05:56:28;100721.09;;;2.59;75.00
40155;BME280;25875;48.202;16.334;2023-01-25T05:58:56;100716.72;;;2.58;74.84
40155;BME280;25875;48.202;16.334;2023-01-25T06:01:24;100722.84;;;2.60;74.87
40155;BME280;25875;48.202;16.334;2023-01-25T06:03:51;100726.31;;;2.61;74.92
40155;BME280;25875;48.202;16.334;2023-01-25T06:06:18;100721.97;;;2.61;74.84
40155;BME280;25875;48.202;16.334;2023-01-25T06:08:47;100721.97;;;2.60;74.90
40155;BME280;25875;48.202;16.334;2023-01-25T06:11:15;100714.13;;;2.58;74.83
40155;BME280;25875;48.202;16.334;2023-01-25T06:13:43;100719.34;;;2.58;74.94
40155;BME280;25875;48.202;16.334;2023-01-25T06:16:10;100698.44;;;2.44;74.90
40155;BME280;25875;48.202;16.334;2023-01-25T06:18:37;100287.34;;;0.03;74.74
40155;BME280;25875;48.202;16.334;2023-01-25T06:21:04;100718.47;;;2.59;74.90
40155;BME280;25875;48.202;16.334;2023-01-25T06:23:31;100731.56;;;2.59;74.71
40155;BME280;25875;48.202;16.334;2023-01-25T06:26:01;100728.06;;;2.59;74.84
40155;BME280;25875;48.202;16.334;2023-01-25T06:28:29;100728.06;;;2.59;74.96
40155;BME280;25875;48.202;16.334;2023-01-25T06:31:02;100728.94;;;2.58;74.71
40155;BME280;25875;48.202;16.334;2023-01-25T06:33:29;100718.47;;;2.58;74.95
40155;BME280;25875;48.202;16.334;2023-01-25T06:35:59;100728.06;;;2.59;74.78
40155;BME280;25875;48.202;16.334;2023-01-25T06:38:26;100720.22;;;2.60;74.92
40155;BME280;25875;48.202;16.334;2023-01-25T06:40:52;100722.84;;;2.60;74.72
40155;BME280;25875;48.202;16.334;2023-01-25T06:43:21;100714.13;;;2.60;74.75
40155;BME280;25875;48.202;16.334;2023-01-25T06:45:47;100720.22;;;2.60;74.72
40155;BME280;25875;48.202;16.334;2023-01-25T06:48:14;100691.44;;;2.45;74.76
40155;BME280;25875;48.202;16.334;2023-01-25T06:50:41;100717.59;;;2.59;74.89
40155;BME280;25875;48.202;16.334;2023-01-25T06:53:08;100711.50;;;2.60;74.75
40155;BME280;25875;48.202;16.334;2023-01-25T06:55:35;100715.84;;;2.59;74.92
40155;BME280;25875;48.202;16.334;2023-01-25T06:58:02;100707.13;;;2.59;74.82
40155;BME280;25875;48.202;16.334;2023-01-25T07:00:30;100705.38;;;2.59;74.86
40155;BME280;25875;48.202;16.334;2023-01-25T07:02:57;100707.13;;;2.57;74.77
40155;BME280;25875;48.202;16.334;2023-01-25T07:05:26;100709.75;;;2.57;74.86
40155;BME280;25875;48.202;16.334;2023-01-25T07:07:52;100706.28;;;2.57;74.93
40155;BME280;25875;48.202;16.334;2023-01-25T07:10:19;100710.63;;;2.56;75.06
40155;BME280;25875;48.202;16.334;2023-01-25T07:12:46;100704.53;;;2.57;74.98
40155;BME280;25875;48.202;16.334;2023-01-25T07:15:13;100701.91;;;2.59;75.02
40155;BME280;25875;48.202;16.334;2023-01-25T07:17:41;100699.28;;;2.60;74.65
40155;BME280;25875;48.202;16.334;2023-01-25T07:20:09;100699.28;;;2.62;74.87
40155;BME280;25875;48.202;16.334;2023-01-25T07:22:36;100704.53;;;2.60;74.94
40155;BME280;25875;48.202;16.334;2023-01-25T07:25:03;100707.13;;;2.60;74.92
40155;BME280;25875;48.202;16.334;2023-01-25T07:27:32;100701.03;;;2.60;74.82
40155;BME280;25875;48.202;16.334;2023-01-25T07:29:59;100707.13;;;2.60;74.85
40155;BME280;25875;48.202;16.334;2023-01-25T07:32:26;100705.38;;;2.59;74.83
40155;BME280;25875;48.202;16.334;2023-01-25T07:34:54;100708.00;;;2.59;74.91
40155;BME280;25875;48.202;16.334;2023-01-25T07:37:21;100779.56;;;2.61;74.83
40155;BME280;25875;48.202;16.334;2023-01-25T07:39:48;100710.63;;;2.59;74.96
40155;BME280;25875;48.202;16.334;2023-01-25T07:42:15;100658.34;;;2.21;74.87
40155;BME280;25875;48.202;16.334;2023-01-25T07:44:42;100706.25;;;2.60;74.94
40155;BME280;25875;48.202;16.334;2023-01-25T07:47:09;100702.78;;;2.59;74.99
40155;BME280;25875;48.202;16.334;2023-01-25T07:49:35;100700.16;;;2.59;74.98
40155;BME280;25875;48.202;16.334;2023-01-25T07:52:04;100701.03;;;2.58;75.01
40155;BME280;25875;48.202;16.334;2023-01-25T07:54:31;100704.53;;;2.59;74.68
40155;BME280;25875;48.202;16.334;2023-01-25T07:56:58;100700.16;;;2.59;75.02
40155;BME280;25875;48.202;16.334;2023-01-25T07:59:25;100704.53;;;2.60;75.02
40155;BME280;25875;48.202;16.334;2023-01-25T08:01:52;100560.72;;;1.76;74.93
40155;BME280;25875;48.202;16.334;2023-01-25T08:04:18;100703.66;;;2.60;74.94
40155;BME280;25875;48.202;16.334;2023-01-25T08:06:45;100686.22;;;2.48;74.93
40155;BME280;25875;48.202;16.334;2023-01-25T08:09:16;100707.13;;;2.60;74.88
40155;BME280;25875;48.202;16.334;2023-01-25T08:11:44;100707.13;;;2.60;75.02
40155;BME280;25875;48.202;16.334;2023-01-25T08:14:11;100704.53;;;2.60;75.03
40155;BME280;25875;48.202;16.334;2023-01-25T08:16:38;100700.16;;;2.59;75.02
40155;BME280;25875;48.202;16.334;2023-01-25T08:19:05;100698.41;;;2.60;75.00
40155;BME280;25875;48.202;16.334;2023-01-25T08:21:33;100701.91;;;2.60;74.96
40155;BME280;25875;48.202;16.334;2023-01-25T08:24:02;100694.91;;;2.61;74.95
40155;BME280;25875;48.202;16.334;2023-01-25T08:26:30;100700.16;;;2.62;74.93
40155;BME280;25875;48.202;16.334;2023-01-25T08:28:57;100693.19;;;2.61;74.82
40155;BME280;25875;48.202;16.334;2023-01-25T08:31:25;100698.41;;;2.63;74.70
40155;BME280;25875;48.202;16.334;2023-01-25T08:33:53;100691.44;;;2.62;74.79
40155;BME280;25875;48.202;16.334;2023-01-25T08:36:19;100694.03;;;2.62;74.69
40155;BME280;25875;48.202;16.334;2023-01-25T08:38:52;100689.69;;;2.62;74.64
40155;BME280;25875;48.202;16.334;2023-01-25T08:41:21;100638.25;;;2.34;74.62
40155;BME280;25875;48.202;16.334;2023-01-25T08:43:51;100679.22;;;2.61;74.65
40155;BME280;25875;48.202;16.334;2023-01-25T08:46:18;100680.09;;;2.60;74.72
40155;BME280;25875;48.202;16.334;2023-01-25T08:48:46;100676.59;;;2.61;74.77
40155;BME280;25875;48.202;16.334;2023-01-25T08:51:14;100675.72;;;2.60;74.76
40155;BME280;25875;48.202;16.334;2023-01-25T08:53:41;100674.84;;;2.60;74.82
40155;BME280;25875;48.202;16.334;2023-01-25T08:56:10;100670.50;;;2.60;74.46
40155;BME280;25875;48.202;16.334;2023-01-25T08:58:38;100668.75;;;2.61;74.68
40155;BME280;25875;48.202;16.334;2023-01-25T09:01:09;100679.22;;;2.61;74.62
40155;BME280;25875;48.202;16.334;2023-01-25T09:03:38;100670.50;;;2.62;74.65
40155;BME280;25875;48.202;16.334;2023-01-25T09:06:06;100672.22;;;2.63;74.72
40155;BME280;25875;48.202;16.334;2023-01-25T09:08:34;100678.34;;;2.63;74.51
40155;BME280;25875;48.202;16.334;2023-01-25T09:11:02;100673.97;;;2.64;74.59
40155;BME280;25875;48.202;16.334;2023-01-25T09:13:30;100673.09;;;2.63;74.49
40155;BME280;25875;48.202;16.334;2023-01-25T09:16:00;100685.31;;;2.64;74.42
40155;BME280;25875;48.202;16.334;2023-01-25T09:18:29;100681.81;;;2.64;74.38
40155;BME280;25875;48.202;16.334;2023-01-25T09:20:56;100680.94;;;2.65;74.48
40155;BME280;25875;48.202;16.334;2023-01-25T09:23:23;100677.47;;;2.64;74.35
40155;BME280;25875;48.202;16.334;2023-01-25T09:25:55;100679.22;;;2.65;74.33
40155;BME280;25875;48.202;16.334;2023-01-25T09:28:22;100673.09;;;2.66;74.28
40155;BME280;25875;48.202;16.334;2023-01-25T09:30:53;100599.03;;;2.23;74.21
40155;BME280;25875;48.202;16.334;2023-01-25T09:33:24;100669.59;;;2.67;74.32
40155;BME280;25875;48.202;16.334;2023-01-25T09:35:52;100655.63;;;2.68;74.28
40155;BME280;25875;48.202;16.334;2023-01-25T09:38:19;100645.16;;;2.70;74.30
40155;BME280;25875;48.202;16.334;2023-01-25T09:40:55;100647.78;;;2.68;74.12
40155;BME280;25875;48.202;16.334;2023-01-25T09:43:34;100651.28;;;2.69;74.17
40155;BME280;25875;48.202;16.334;2023-01-25T09:46:13;100642.53;;;2.70;74.12
40155;BME280;25875;48.202;16.334;2023-01-25T09:48:47;100644.28;;;2.69;73.97
40155;BME280;25875;48.202;16.334;2023-01-25T09:51:25;100638.19;;;2.70;73.96
40155;BME280;25875;48.202;16.334;2023-01-25T09:53:53;100636.44;;;2.72;73.95
40155;BME280;25875;48.202;16.334;2023-01-25T09:56:25;100637.31;;;2.74;73.92
40155;BME280;25875;48.202;16.334;2023-01-25T09:58:57;100625.97;;;2.74;73.81
40155;BME280;25875;48.202;16.334;2023-01-25T10:01:27;100630.31;;;2.76;73.71
40155;BME280;25875;48.202;16.334;2023-01-25T10:04:01;100634.69;;;2.74;73.74
40155;BME280;25875;48.202;16.334;2023-01-25T10:06:36;100638.16;;;2.76;73.67
40155;BME280;25875;48.202;16.334;2023-01-25T10:09:13;100564.13;;;2.35;73.47
40155;BME280;25875;48.202;16.334;2023-01-25T10:11:41;100615.47;;;2.78;73.68
40155;BME280;25875;48.202;16.334;2023-01-25T10:14:12;100613.72;;;2.77;73.53
40155;BME280;25875;48.202;16.334;2023-01-25T10:16:49;100598.88;;;2.78;73.37
40155;BME280;25875;48.202;16.334;2023-01-25T10:19:19;100591.91;;;2.78;73.54
40155;BME280;25875;48.202;16.334;2023-01-25T10:21:54;100586.66;;;2.78;73.74
40155;BME280;25875;48.202;16.334;2023-01-25T10:24:33;100591.03;;;2.78;73.23
40155;BME280;25875;48.202;16.334;2023-01-25T10:27:16;100583.19;;;2.76;73.41
40155;BME280;25875;48.202;16.334;2023-01-25T10:29:49;100591.03;;;2.78;73.53
40155;BME280;25875;48.202;16.334;2023-01-25T10:32:19;100575.31;;;2.79;73.71
40155;BME280;25875;48.202;16.334;2023-01-25T10:34:49;100570.06;;;2.81;73.52
40155;BME280;25875;48.202;16.334;2023-01-25T10:37:19;100151.81;;;0.40;73.17
40155;BME280;25875;48.202;16.334;2023-01-25T10:39:53;100558.72;;;2.83;73.19
40155;BME280;25875;48.202;16.334;2023-01-25T10:42:25;100562.22;;;2.82;73.24
40155;BME280;25875;48.202;16.334;2023-01-25T10:44:52;100563.97;;;2.82;73.27
40155;BME280;25875;48.202;16.334;2023-01-25T10:47:23;100555.22;;;2.83;73.37
40155;BME280;25875;48.202;16.334;2023-01-25T10:49:52;100567.44;;;2.85;73.28
40155;BME280;25875;48.202;16.334;2023-01-25T10:52:22;100550.00;;;2.84;73.11
40155;BME280;25875;48.202;16.334;2023-01-25T10:55:07;100487.34;;;2.48;72.71
40155;BME280;25875;48.202;16.334;2023-01-25T10:57:41;100552.59;;;2.86;73.00
40155;BME280;25875;48.202;16.334;2023-01-25T11:00:22;100463.00;;;2.31;72.84
40155;BME280;25875;48.202;16.334;2023-01-25T11:02:52;100545.59;;;2.88;72.87
40155;BME280;25875;48.202;16.334;2023-01-25T11:05:24;100551.72;;;2.90;72.70
40155;BME280;25875;48.202;16.334;2023-01-25T11:07:53;100528.13;;;2.92;72.79
40155;BME280;25875;48.202;16.334;2023-01-25T11:10:28;100531.63;;;2.92;72.64
40155;BME280;25875;48.202;16.334;2023-01-25T11:13:18;100527.25;;;2.93;72.29
40155;BME280;25875;48.202;16.334;2023-01-25T11:15:47;100529.00;;;2.94;72.63
40155;BME280;25875;48.202;16.334;2023-01-25T11:18:18;100515.91;;;2.92;72.61
40155;BME280;25875;48.202;16.334;2023-01-25T11:20:45;100517.63;;;2.95;72.73
40155;BME280;25875;48.202;16.334;2023-01-25T11:23:21;100521.13;;;2.94;72.32
40155;BME280;25875;48.202;16.334;2023-01-25T11:25:49;100515.03;;;2.95;72.77
40155;BME280;25875;48.202;16.334;2023-01-25T11:28:19;100514.13;;;2.96;72.71
40155;BME280;25875;48.202;16.334;2023-01-25T11:30:48;100506.28;;;2.96;72.68
40155;BME280;25875;48.202;16.334;2023-01-25T11:33:17;100508.91;;;2.96;72.53
40155;BME280;25875;48.202;16.334;2023-01-25T11:35:57;100501.03;;;2.96;72.34
40155;BME280;25875;48.202;16.334;2023-01-25T11:38:29;100494.06;;;2.95;72.69
40155;BME280;25875;48.202;16.334;2023-01-25T11:41:03;100429.75;;;2.52;72.52
40155;BME280;25875;48.202;16.334;2023-01-25T11:43:50;100488.84;;;2.92;72.17
40155;BME280;25875;48.202;16.334;2023-01-25T11:46:33;100478.41;;;2.88;72.32
40155;BME280;25875;48.202;16.334;2023-01-25T11:49:10;100471.41;;;2.87;72.59
40155;BME280;25875;48.202;16.334;2023-01-25T11:51:49;100465.31;;;2.88;72.76
40155;BME280;25875;48.202;16.334;2023-01-25T11:54:47;100460.03;;;2.92;72.40
40155;BME280;25875;48.202;16.334;2023-01-25T11:57:28;100457.44;;;2.88;72.56
40155;BME280;25875;48.202;16.334;2023-01-25T12:00:07;100446.97;;;2.88;72.72
40155;BME280;25875;48.202;16.334;2023-01-25T12:03:03;100433.88;;;2.88;72.42
40155;BME280;25875;48.202;16.334;2023-01-25T12:05:43;100440.00;;;2.87;72.58
40155;BME280;25875;48.202;16.334;2023-01-25T12:11:08;100426.88;;;2.91;72.68
40155;BME280;25875;48.202;16.334;2023-01-25T12:13:45;100419.91;;;2.90;72.77
40155;BME280;25875;48.202;16.334;2023-01-25T12:16:38;100416.44;;;2.87;72.45
40155;BME280;25875;48.202;16.334;2023-01-25T12:19:25;100418.19;;;2.87;72.47
40155;BME280;25875;48.202;16.334;2023-01-25T12:22:08;100418.19;;;2.85;72.82
40155;BME280;25875;48.202;16.334;2023-01-25T12:24:45;100414.69;;;2.86;72.69
40155;BME280;25875;48.202;16.334;2023-01-25T12:27:27;100406.84;;;2.86;72.78
40155;BME280;25875;48.202;16.334;2023-01-25T12:29:59;100405.09;;;2.88;73.08
40155;BME280;25875;48.202;16.334;2023-01-25T12:32:33;100399.84;;;2.88;72.91
40155;BME280;25875;48.202;16.334;2023-01-25T12:35:18;100399.84;;;2.88;72.67
40155;BME280;25875;48.202;16.334;2023-01-25T12:37:48;100387.63;;;2.87;72.83
40155;BME280;25875;48.202;16.334;2023-01-25T12:40:23;100389.38;;;2.88;72.81
40155;BME280;25875;48.202;16.334;2023-01-25T12:42:57;100384.13;;;2.90;72.67
40155;BME280;25875;48.202;16.334;2023-01-25T12:45:27;100381.50;;;2.88;72.89
40155;BME280;25875;48.202;16.334;2023-01-25T12:47:59;100383.25;;;2.88;72.76
40155;BME280;25875;48.202;16.334;2023-01-25T12:50:30;100379.78;;;2.87;72.76
40155;BME280;25875;48.202;16.334;2023-01-25T12:53:05;100382.44;;;2.83;72.69
40155;BME280;25875;48.202;16.334;2023-01-25T12:55:36;100363.22;;;2.82;72.76
40155;BME280;25875;48.202;16.334;2023-01-25T12:58:14;100369.34;;;2.83;72.67
40155;BME280;25875;48.202;16.334;2023-01-25T13:00:47;100364.97;;;2.83;72.83
40155;BME280;25875;48.202;16.334;2023-01-25T13:03:26;100351.88;;;2.83;72.71
40155;BME280;25875;48.202;16.334;2023-01-25T13:06:00;100344.91;;;2.84;72.76